Time;durP1;ratioP1;P1;durP2;ratioP2;P2;SDS_P1;SDS_P2;PMS_P1;PMS_P2;Temp;Humidity;BMP_temperature;BMP_pressure;BME280_temperature;BME280_humidity;BME280_pressure;Samples;Min_cycle;Max_cycle;Signal;HPM_P1;HPM_P2
2021/08/06 17:09:24;;;;;;;2.45;2.08;;;;;;;25.60;47.65;99546.72;5042281;28;20388;-64
2021/08/06 17:11:50;;;;;;;1.70;1.60;;;;;;;25.63;47.66;99557.22;5033929;28;20059;-63
2021/08/06 17:14:15;;;;;;;2.30;1.60;;;;;;;25.64;47.74;99556.16;5018973;28;20470;-63
2021/08/06 17:16:44;;;;;;;1.70;1.60;;;;;;;25.65;47.85;99555.06;5024027;28;20029;-66
2021/08/06 17:19:10;;;;;;;2.17;1.90;;;;;;;25.61;47.93;99548.41;5041350;28;20437;-66
2021/08/06 17:21:36;;;;;;;5.40;2.00;;;;;;;25.65;48.03;99549.56;5044818;28;20035;-66
2021/08/06 17:24:02;;;;;;;3.55;1.92;;;;;;;25.63;47.97;99551.72;5046987;28;20025;-66
2021/08/06 17:26:28;;;;;;;3.10;2.28;;;;;;;25.67;48.04;99565.78;5046264;28;20044;-66
2021/08/06 17:28:53;;;;;;;4.13;2.50;;;;;;;25.68;48.10;99564.69;5046656;28;20037;-66
2021/08/06 17:31:19;;;;;;;4.20;1.73;;;;;;;25.66;48.22;99559.44;5046498;28;20025;-66
2021/08/06 17:33:44;;;;;;;3.88;2.15;;;;;;;25.65;48.09;99566.03;5044984;28;20447;-64
2021/08/06 17:36:10;;;;;;;3.70;2.08;;;;;;;25.65;47.95;99567.94;5045117;28;20091;-64
2021/08/06 17:38:35;;;;;;;2.72;1.85;;;;;;;25.62;47.67;99576.69;5046537;28;20466;-64
2021/08/06 17:41:01;;;;;;;4.95;1.70;;;;;;;25.57;47.52;99571.13;5046380;28;20029;-64
2021/08/06 17:43:27;;;;;;;4.32;1.67;;;;;;;25.54;47.43;99572.44;5046313;28;20021;-64
2021/08/06 17:45:52;;;;;;;1.55;1.45;;;;;;;25.52;47.32;99582.00;5046140;28;20056;-64
2021/08/06 17:48:18;;;;;;;2.08;1.73;;;;;;;25.42;47.32;99571.69;5046240;28;20021;-64
2021/08/06 17:50:44;;;;;;;2.50;1.73;;;;;;;25.45;47.31;99584.09;5045802;28;20060;-64
2021/08/06 17:53:11;;;;;;;2.00;1.58;;;;;;;25.36;47.44;99580.91;5044857;28;20489;-64
2021/08/06 17:55:36;;;;;;;1.75;1.65;;;;;;;25.31;47.64;99583.56;5045980;28;20040;-64
2021/08/06 17:58:02;;;;;;;2.95;1.75;;;;;;;25.29;47.64;99587.63;5046388;28;20471;-64
2021/08/06 18:00:28;;;;;;;5.72;2.15;;;;;;;25.21;48.02;99588.84;5045929;28;20029;-64
2021/08/06 18:02:53;;;;;;;5.93;2.38;;;;;;;25.13;48.51;99583.75;5045998;28;20029;-64
2021/08/06 18:05:19;;;;;;;8.63;2.13;;;;;;;25.06;48.60;99580.34;5045990;28;20025;-64
2021/08/06 18:07:44;;;;;;;6.18;1.95;;;;;;;25.04;49.28;99595.38;5045426;28;20050;-64
2021/08/06 18:10:11;;;;;;;3.28;2.08;;;;;;;24.98;49.56;99588.16;5045449;28;20025;-64
2021/08/06 18:12:36;;;;;;;2.00;1.75;;;;;;;24.94;49.56;99597.91;5045980;28;20048;-64
2021/08/06 18:15:04;;;;;;;5.03;2.00;;;;;;;24.87;50.07;99609.06;5045800;28;20565;-64
2021/08/06 18:17:31;;;;;;;3.78;1.65;;;;;;;24.80;50.28;99607.53;5045374;28;20452;-64
2021/08/06 18:19:57;;;;;;;6.10;1.83;;;;;;;24.73;50.93;99607.66;5036468;28;20463;-64
2021/08/06 18:22:22;;;;;;;4.75;1.52;;;;;;;24.66;50.99;99614.38;5032154;28;20040;-64
2021/08/06 18:24:49;;;;;;;3.97;2.00;;;;;;;24.60;51.56;99615.31;5031945;28;20116;-64
2021/08/06 18:27:16;;;;;;;4.18;1.85;;;;;;;24.52;52.07;99615.66;5032046;28;20041;-64
2021/08/06 18:29:42;;;;;;;6.22;1.90;;;;;;;24.44;51.82;99617.72;5031897;28;20033;-66
2021/08/06 18:32:07;;;;;;;2.10;1.75;;;;;;;24.38;52.07;99617.84;5032337;28;20051;-66
2021/08/06 18:34:33;;;;;;;4.32;1.60;;;;;;;24.30;52.70;99627.28;5030418;28;20033;-66
2021/08/06 18:36:59;;;;;;;7.35;2.03;;;;;;;24.23;53.22;99632.03;5032002;28;20387;-65
2021/08/06 18:39:24;;;;;;;3.67;1.80;;;;;;;24.14;52.72;99629.88;5032218;28;20100;-66
2021/08/06 18:41:50;;;;;;;3.95;2.00;;;;;;;24.04;53.24;99630.50;5031641;28;20017;-65
2021/08/06 18:44:16;;;;;;;3.88;2.15;;;;;;;24.01;53.39;99638.34;5031870;28;20064;-65
2021/08/06 18:46:42;;;;;;;3.90;1.73;;;;;;;23.94;53.62;99645.84;5031967;28;20034;-66
2021/08/06 18:49:08;;;;;;;1.48;1.38;;;;;;;23.88;53.73;99649.50;5031827;28;20052;-65
2021/08/06 18:51:35;;;;;;;2.65;1.73;;;;;;;23.82;53.94;99648.53;5030090;28;20113;-66
2021/08/06 18:54:01;;;;;;;3.75;1.80;;;;;;;23.76;54.02;99646.75;5030191;28;20057;-66
2021/08/06 18:56:26;;;;;;;2.50;1.75;;;;;;;23.71;54.54;99645.78;5031551;28;20072;-66
2021/08/06 18:58:53;;;;;;;3.00;1.70;;;;;;;23.65;54.60;99655.78;5030164;28;20091;-66
2021/08/06 19:01:22;;;;;;;5.80;1.90;;;;;;;23.59;55.62;99648.50;5031495;28;20028;-66
2021/08/06 19:03:49;;;;;;;10.93;1.83;;;;;;;23.56;55.71;99650.84;5031212;28;20249;-66
2021/08/06 19:06:15;;;;;;;2.75;1.65;;;;;;;23.51;55.29;99650.75;5029997;28;20075;-65
2021/08/06 19:08:41;;;;;;;2.58;1.65;;;;;;;23.47;55.46;99655.03;5030892;28;20053;-66
2021/08/06 19:11:07;;;;;;;2.53;1.95;;;;;;;23.39;55.85;99650.72;5030294;28;20464;-66
2021/08/06 19:13:33;;;;;;;3.95;1.95;;;;;;;23.33;56.11;99643.44;5030960;28;20034;-65
2021/08/06 19:16:00;;;;;;;5.00;1.70;;;;;;;23.30;55.94;99654.00;5030110;28;20029;-66
2021/08/06 19:18:26;;;;;;;5.57;2.00;;;;;;;23.23;56.30;99662.31;5031143;28;20022;-65
2021/08/06 19:20:53;;;;;;;2.38;1.75;;;;;;;23.19;56.47;99658.34;5030882;28;20025;-65
2021/08/06 19:23:18;;;;;;;5.13;1.58;;;;;;;23.14;56.94;99660.94;5031124;28;20033;-65
2021/08/06 19:25:44;;;;;;;2.90;1.70;;;;;;;23.10;56.71;99659.72;5030851;28;20025;-65
2021/08/06 19:28:10;;;;;;;5.22;2.35;;;;;;;23.06;56.04;99657.69;5031294;28;20040;-65
2021/08/06 19:30:46;;;;;;;3.25;1.48;;;;;;;22.94;56.13;99645.84;5030017;28;20029;-65
2021/08/06 19:33:17;;;;;;;1.88;1.73;;;;;;;22.94;56.23;99652.16;5030922;28;20538;-66
2021/08/06 19:35:44;;;;;;;3.70;1.70;;;;;;;22.86;56.67;99655.19;5030701;28;20105;-66
2021/08/06 19:38:11;;;;;;;3.38;1.70;;;;;;;22.81;56.49;99660.53;5031229;28;20045;-65
2021/08/06 19:40:37;;;;;;;6.30;2.00;;;;;;;22.76;57.17;99662.28;5030414;28;20467;-65
2021/08/06 19:43:04;;;;;;;4.55;2.22;;;;;;;22.71;57.76;99665.72;5030734;28;20270;-66
2021/08/06 19:45:30;;;;;;;3.58;2.67;;;;;;;22.67;58.14;99664.50;5029261;28;20036;-65
2021/08/06 19:47:56;;;;;;;4.65;2.17;;;;;;;22.62;58.56;99669.81;5030490;28;20106;-63
2021/08/06 19:50:22;;;;;;;3.15;2.25;;;;;;;22.59;58.85;99670.25;5029463;28;20025;-63
2021/08/06 19:52:48;;;;;;;3.65;2.20;;;;;;;22.55;58.86;99670.94;5030397;28;20499;-63
2021/08/06 19:55:14;;;;;;;4.25;2.20;;;;;;;22.51;59.60;99669.72;5029112;28;20048;-64
2021/08/06 19:57:41;;;;;;;3.13;2.20;;;;;;;22.47;59.86;99685.69;5029002;28;20032;-63
2021/08/06 20:00:09;;;;;;;2.78;2.05;;;;;;;22.40;59.87;99675.91;5029199;28;20029;-63
2021/08/06 20:02:35;;;;;;;4.82;1.95;;;;;;;22.32;60.30;99683.31;5029895;28;20021;-63
2021/08/06 20:05:02;;;;;;;2.90;2.13;;;;;;;22.30;60.39;99690.06;5028868;28;20602;-63
2021/08/06 20:07:27;;;;;;;2.35;2.15;;;;;;;22.20;60.72;99690.59;5029905;28;20045;-63
2021/08/06 20:09:52;;;;;;;5.93;2.58;;;;;;;22.11;60.83;99681.03;5030022;28;20037;-63
2021/08/06 20:12:18;;;;;;;4.43;2.50;;;;;;;22.11;60.90;99688.38;5030083;28;20052;-63
2021/08/06 20:14:43;;;;;;;4.05;1.92;;;;;;;22.08;60.80;99694.28;5028859;28;20025;-63
2021/08/06 20:17:09;;;;;;;5.05;2.30;;;;;;;22.04;60.44;99695.78;5030215;28;20033;-63
2021/08/06 20:19:35;;;;;;;7.18;2.15;;;;;;;21.96;60.19;99690.63;5029775;28;20487;-63
2021/08/06 20:22:02;;;;;;;2.97;2.10;;;;;;;21.97;59.93;99703.22;5029912;28;20471;-63
2021/08/06 20:24:28;;;;;;;3.53;2.10;;;;;;;21.92;59.79;99703.88;5029736;28;20029;-63
2021/08/06 20:26:54;;;;;;;3.42;1.80;;;;;;;21.88;60.19;99712.72;5029680;28;20025;-63
2021/08/06 20:29:19;;;;;;;3.20;2.17;;;;;;;21.82;60.29;99708.16;5029820;28;20033;-63
2021/08/06 20:31:45;;;;;;;6.40;2.10;;;;;;;21.78;60.72;99705.03;5029426;28;20032;-65
2021/08/06 20:34:11;;;;;;;3.45;1.92;;;;;;;21.79;61.44;99705.84;5028625;28;20087;-65
2021/08/06 20:36:36;;;;;;;4.55;2.00;;;;;;;21.75;62.29;99699.19;5028257;28;20033;-65
2021/08/06 20:39:02;;;;;;;2.75;1.90;;;;;;;21.73;62.54;99706.78;5029978;28;20410;-65
2021/08/06 20:41:27;;;;;;;4.97;2.53;;;;;;;21.70;62.93;99712.63;5028057;28;20056;-65
2021/08/06 20:43:53;;;;;;;4.47;2.00;;;;;;;21.65;63.11;99707.84;5029211;28;20025;-65
2021/08/06 20:46:18;;;;;;;2.67;2.00;;;;;;;21.62;63.46;99710.16;5029549;28;20159;-65
2021/08/06 20:48:44;;;;;;;2.60;2.25;;;;;;;21.56;63.50;99711.03;5029581;28;20049;-65
2021/08/06 20:51:09;;;;;;;5.65;2.30;;;;;;;21.52;64.00;99721.56;5029573;28;20131;-65
2021/08/06 20:53:35;;;;;;;3.00;1.98;;;;;;;21.46;63.79;99718.88;5029225;28;20075;-65
2021/08/06 20:56:01;;;;;;;5.47;2.05;;;;;;;21.44;63.33;99721.00;5029512;28;20526;-65
2021/08/06 20:58:26;;;;;;;2.63;2.10;;;;;;;21.40;63.55;99711.53;5029313;28;20079;-66
2021/08/06 21:00:52;;;;;;;3.17;1.83;;;;;;;21.35;63.75;99719.56;5027975;28;20033;-65
2021/08/06 21:03:17;;;;;;;4.00;2.22;;;;;;;21.31;64.05;99724.63;5029465;28;20467;-65
2021/08/06 21:05:44;;;;;;;2.67;2.25;;;;;;;21.28;64.15;99729.69;5029356;28;20524;-65
2021/08/06 21:08:09;;;;;;;4.40;2.13;;;;;;;21.24;64.30;99729.28;5029095;28;20049;-65
2021/08/06 21:10:35;;;;;;;2.40;2.20;;;;;;;21.20;64.64;99724.47;5027680;28;20505;-65
2021/08/06 21:13:01;;;;;;;2.65;2.17;;;;;;;21.18;64.84;99726.59;5029301;28;20490;-65
2021/08/06 21:15:26;;;;;;;6.55;2.65;;;;;;;21.15;64.79;99743.38;5029319;28;20478;-65
2021/08/06 21:17:52;;;;;;;3.35;2.30;;;;;;;21.11;65.14;99737.50;5028640;28;20096;-65
2021/08/06 21:20:18;;;;;;;3.13;2.40;;;;;;;21.08;65.32;99735.22;5029428;28;20159;-65
2021/08/06 21:22:43;;;;;;;4.90;2.50;;;;;;;20.99;66.01;99728.31;5029218;28;20030;-65
2021/08/06 21:25:11;;;;;;;3.72;2.60;;;;;;;21.01;66.51;99747.19;5028975;28;20021;-65
2021/08/06 21:27:37;;;;;;;5.05;2.80;;;;;;;20.98;66.93;99744.91;5028813;28;20053;-65
2021/08/06 21:30:04;;;;;;;2.88;2.55;;;;;;;20.94;67.08;99749.97;5029385;28;20033;-65
2021/08/06 21:32:29;;;;;;;4.03;2.50;;;;;;;20.85;67.61;99742.19;5044251;28;20044;-65
2021/08/06 21:34:54;;;;;;;5.30;2.40;;;;;;;20.81;68.26;99744.50;5028744;28;20383;-65
2021/08/06 21:37:20;;;;;;;6.05;2.67;;;;;;;20.81;68.38;99749.13;5029062;28;20018;-65
2021/08/06 21:39:46;;;;;;;2.92;2.63;;;;;;;20.77;68.53;99756.91;5029020;28;20100;-65
2021/08/06 21:42:11;;;;;;;3.95;2.30;;;;;;;20.74;68.58;99759.22;5028817;28;20033;-66
2021/08/06 21:44:37;;;;;;;3.58;2.45;;;;;;;20.70;68.37;99757.97;5028585;28;20033;-65
2021/08/06 21:47:03;;;;;;;4.57;2.45;;;;;;;20.67;68.25;99767.38;5029041;28;20025;-65
2021/08/06 21:49:28;;;;;;;2.65;2.45;;;;;;;20.64;68.10;99770.56;5028922;28;20498;-65
2021/08/06 21:51:53;;;;;;;4.55;2.60;;;;;;;20.61;68.18;99761.97;5028819;28;20026;-65
2021/08/06 21:54:19;;;;;;;2.50;2.30;;;;;;;20.59;68.25;99772.22;5029902;28;20533;-66
2021/08/06 21:56:44;;;;;;;3.85;2.35;;;;;;;20.56;68.39;99773.50;5032267;28;20021;-65
2021/08/06 21:59:11;;;;;;;2.95;2.65;;;;;;;20.53;68.48;99776.63;5032415;28;20052;-65
2021/08/06 22:01:37;;;;;;;4.75;2.42;;;;;;;20.50;68.12;99770.78;5032168;28;20173;-65
2021/08/06 22:04:02;;;;;;;2.92;2.38;;;;;;;20.49;68.12;99774.53;5032465;28;20032;-65
2021/08/06 22:06:28;;;;;;;2.92;2.20;;;;;;;20.43;68.03;99767.22;5031101;28;20030;-65
2021/08/06 22:08:53;;;;;;;3.40;2.28;;;;;;;20.44;68.06;99782.53;5032036;28;20179;-63
2021/08/06 22:11:19;;;;;;;2.97;2.22;;;;;;;20.36;68.07;99769.97;5032482;28;20322;-64
2021/08/06 22:13:44;;;;;;;5.25;2.10;;;;;;;20.41;68.11;99783.75;5031911;28;20021;-65
2021/08/06 22:16:09;;;;;;;3.95;2.47;;;;;;;20.37;67.93;99779.78;5032225;28;20033;-63
2021/08/06 22:18:35;;;;;;;3.38;2.50;;;;;;;20.38;68.55;99772.47;5030632;28;20084;-63
2021/08/06 22:21:01;;;;;;;3.08;2.20;;;;;;;20.32;68.55;99776.03;5032191;28;20029;-63
2021/08/06 22:23:26;;;;;;;3.03;2.55;;;;;;;20.28;68.49;99775.59;5032127;28;20040;-63
2021/08/06 22:25:52;;;;;;;3.67;2.35;;;;;;;20.29;68.85;99776.44;5031905;28;20275;-63
2021/08/06 22:28:17;;;;;;;4.28;2.28;;;;;;;20.28;69.25;99781.06;5032283;28;20498;-62
2021/08/06 22:30:43;;;;;;;2.88;2.53;;;;;;;20.28;69.49;99791.13;5031750;28;20042;-63
2021/08/06 22:33:08;;;;;;;2.50;2.30;;;;;;;20.23;69.65;99788.19;5031989;28;20022;-63
2021/08/06 22:35:34;;;;;;;4.25;2.50;;;;;;;20.21;69.88;99801.19;5030289;28;20056;-63
2021/08/06 22:37:59;;;;;;;4.57;2.50;;;;;;;20.16;69.62;99786.28;5031892;28;20024;-63
2021/08/06 22:40:25;;;;;;;4.55;2.63;;;;;;;20.09;69.74;99788.13;5031652;28;20029;-63
2021/08/06 22:42:50;;;;;;;3.13;2.67;;;;;;;20.12;69.93;99798.66;5031965;28;20028;-63
2021/08/06 22:45:16;;;;;;;5.85;2.58;;;;;;;20.11;70.21;99796.97;5031715;28;20044;-63
2021/08/06 22:47:42;;;;;;;3.88;2.58;;;;;;;20.08;70.10;99786.47;5030203;28;20053;-64
2021/08/06 22:50:08;;;;;;;2.65;2.40;;;;;;;20.02;70.02;99776.41;5030973;28;20111;-63
2021/08/06 22:52:34;;;;;;;3.88;2.53;;;;;;;20.05;70.08;99778.72;5031314;28;20368;-63
2021/08/06 22:54:59;;;;;;;3.97;2.58;;;;;;;20.01;70.60;99777.47;5031406;28;20024;-63
2021/08/06 22:57:26;;;;;;;4.40;2.55;;;;;;;19.98;70.68;99777.03;5031558;28;20026;-63
2021/08/06 22:59:51;;;;;;;3.38;2.70;;;;;;;19.98;71.06;99777.03;5031493;28;20566;-63
2021/08/06 23:02:21;;;;;;;3.38;2.70;;;;;;;19.95;71.20;99780.16;5031686;28;20036;-63
2021/08/06 23:04:48;;;;;;;3.47;2.38;;;;;;;19.87;70.99;99772.22;5031224;28;20041;-63
2021/08/06 23:07:13;;;;;;;5.55;2.20;;;;;;;19.86;71.21;99779.53;5031058;28;20145;-65
2021/08/06 23:09:39;;;;;;;3.92;2.25;;;;;;;19.86;71.64;99786.84;5031026;28;20029;-65
2021/08/06 23:12:05;;;;;;;3.42;2.75;;;;;;;19.84;71.69;99792.53;5031009;28;20112;-65
2021/08/06 23:14:30;;;;;;;4.72;2.20;;;;;;;19.78;72.50;99790.63;5031049;28;20410;-65
2021/08/06 23:16:55;;;;;;;3.67;2.40;;;;;;;19.79;73.49;99797.75;5030974;28;20426;-65
2021/08/06 23:19:21;;;;;;;4.78;2.88;;;;;;;19.75;72.99;99796.47;5031458;28;20025;-65
2021/08/06 23:21:46;;;;;;;3.78;2.53;;;;;;;19.71;72.88;99799.81;5031160;28;20025;-65
2021/08/06 23:24:12;;;;;;;3.58;2.63;;;;;;;19.65;73.18;99800.63;5030790;28;20029;-65
2021/08/06 23:26:37;;;;;;;3.00;2.47;;;;;;;19.61;73.34;99799.38;5029314;28;20025;-65
2021/08/06 23:29:03;;;;;;;2.88;2.60;;;;;;;19.56;73.53;99791.81;5030826;28;20079;-65
2021/08/06 23:31:28;;;;;;;3.78;2.53;;;;;;;19.51;73.96;99777.16;5031023;28;20076;-65
2021/08/06 23:33:53;;;;;;;3.42;2.50;;;;;;;19.45;74.15;99764.38;5030841;28;20028;-65
2021/08/06 23:36:19;;;;;;;5.55;2.30;;;;;;;19.41;74.40;99780.25;5046282;28;20029;-65
2021/08/06 23:38:44;;;;;;;3.20;2.50;;;;;;;19.33;75.05;99787.75;5030476;28;20018;-65
2021/08/06 23:41:10;;;;;;;2.80;2.38;;;;;;;19.29;75.63;99790.06;5030979;28;20502;-65
2021/08/06 23:43:35;;;;;;;3.83;2.33;;;;;;;19.30;76.57;99801.75;5030137;28;20030;-65
2021/08/06 23:46:01;;;;;;;3.50;2.10;;;;;;;19.26;77.14;99798.63;5029258;28;20021;-65
2021/08/06 23:48:26;;;;;;;3.17;2.30;;;;;;;19.28;77.31;99803.88;5029136;28;20104;-65
2021/08/06 23:50:52;;;;;;;2.47;2.25;;;;;;;19.23;78.21;99801.72;5030528;28;20025;-65
2021/08/06 23:53:20;;;;;;;2.53;2.33;;;;;;;19.19;78.28;99805.03;5030597;28;20510;-65
2021/08/06 23:55:46;;;;;;;2.63;2.42;;;;;;;19.26;79.07;99814.94;5030139;28;20025;-65
2021/08/06 23:58:11;;;;;;;3.70;2.53;;;;;;;19.25;79.44;99807.78;5028937;28;20029;-65
